sensor_id;sensor_type;location;lat;lon;timestamp;pressure;altitude;pressure_sealevel;temperature
71640;BMP280;60912;48.968;10.124;2022-07-29T00:00:59;96487.41;;;21.35
71640;BMP280;60912;48.968;10.124;2022-07-29T00:03:24;96490.53;;;21.42
71640;BMP280;60912;48.968;10.124;2022-07-29T00:05:49;96491.25;;;21.42
71640;BMP280;60912;48.968;10.124;2022-07-29T00:08:17;96488.03;;;21.48
71640;BMP280;60912;48.968;10.124;2022-07-29T00:10:43;96504.16;;;21.47
71640;BMP280;60912;48.968;10.124;2022-07-29T00:13:08;96511.09;;;21.46
71640;BMP280;60912;48.968;10.124;2022-07-29T00:15:34;96518.47;;;21.40
71640;BMP280;60912;48.968;10.124;2022-07-29T00:17:59;96519.09;;;21.38
71640;BMP280;60912;48.968;10.124;2022-07-29T00:20:24;96528.88;;;21.37
71640;BMP280;60912;48.968;10.124;2022-07-29T00:22:50;96537.28;;;21.37
71640;BMP280;60912;48.968;10.124;2022-07-29T00:25:16;96529.78;;;21.28
71640;BMP280;60912;48.968;10.124;2022-07-29T00:27:42;96529.56;;;21.10
71640;BMP280;60912;48.968;10.124;2022-07-29T00:30:07;96524.13;;;20.87
71640;BMP280;60912;48.968;10.124;2022-07-29T00:32:33;96522.06;;;20.88
71640;BMP280;60912;48.968;10.124;2022-07-29T00:34:58;96516.69;;;20.92
71640;BMP280;60912;48.968;10.124;2022-07-29T00:37:43;96524.03;;;20.99
71640;BMP280;60912;48.968;10.124;2022-07-29T00:40:09;96517.41;;;21.06
71640;BMP280;60912;48.968;10.124;2022-07-29T00:42:48;96517.84;;;21.14
71640;BMP280;60912;48.968;10.124;2022-07-29T00:45:15;96519.50;;;21.19
71640;BMP280;60912;48.968;10.124;2022-07-29T00:47:40;96519.69;;;21.23
71640;BMP280;60912;48.968;10.124;2022-07-29T00:50:07;96520.34;;;21.21
71640;BMP280;60912;48.968;10.124;2022-07-29T00:52:35;96527.38;;;21.22
71640;BMP280;60912;48.968;10.124;2022-07-29T00:55:03;96524.69;;;21.24
71640;BMP280;60912;48.968;10.124;2022-07-29T00:57:29;96523.88;;;21.22
71640;BMP280;60912;48.968;10.124;2022-07-29T00:59:54;96523.53;;;21.02
71640;BMP280;60912;48.968;10.124;2022-07-29T01:02:20;96521.94;;;20.86
71640;BMP280;60912;48.968;10.124;2022-07-29T01:04:46;96519.06;;;20.84
71640;BMP280;60912;48.968;10.124;2022-07-29T01:07:11;96517.81;;;20.87
71640;BMP280;60912;48.968;10.124;2022-07-29T01:09:37;96510.72;;;20.86
71640;BMP280;60912;48.968;10.124;2022-07-29T01:12:04;96514.19;;;20.84
71640;BMP280;60912;48.968;10.124;2022-07-29T01:14:29;96523.56;;;20.63
71640;BMP280;60912;48.968;10.124;2022-07-29T01:17:02;96512.47;;;20.40
71640;BMP280;60912;48.968;10.124;2022-07-29T01:25:27;96507.63;;;20.15
71640;BMP280;60912;48.968;10.124;2022-07-29T01:28:08;96511.88;;;20.16
71640;BMP280;60912;48.968;10.124;2022-07-29T01:30:35;96513.81;;;20.14
71640;BMP280;60912;48.968;10.124;2022-07-29T01:33:07;96509.09;;;20.05
71640;BMP280;60912;48.968;10.124;2022-07-29T01:35:41;96508.72;;;20.10
71640;BMP280;60912;48.968;10.124;2022-07-29T01:38:18;96512.16;;;20.09
71640;BMP280;60912;48.968;10.124;2022-07-29T01:40:53;96510.41;;;20.15
71640;BMP280;60912;48.968;10.124;2022-07-29T01:43:23;96511.25;;;20.18
71640;BMP280;60912;48.968;10.124;2022-07-29T01:46:05;96496.06;;;20.09
71640;BMP280;60912;48.968;10.124;2022-07-29T01:48:40;96498.25;;;20.11
71640;BMP280;60912;48.968;10.124;2022-07-29T01:51:28;96498.84;;;19.96
71640;BMP280;60912;48.968;10.124;2022-07-29T01:54:14;96505.91;;;19.73
71640;BMP280;60912;48.968;10.124;2022-07-29T01:56:43;96503.88;;;19.62
71640;BMP280;60912;48.968;10.124;2022-07-29T01:59:10;96495.25;;;19.70
71640;BMP280;60912;48.968;10.124;2022-07-29T02:01:37;96488.19;;;19.69
71640;BMP280;60912;48.968;10.124;2022-07-29T02:04:06;96498.75;;;19.70
71640;BMP280;60912;48.968;10.124;2022-07-29T02:06:33;96487.47;;;19.68
71640;BMP280;60912;48.968;10.124;2022-07-29T02:09:02;96494.75;;;19.73
71640;BMP280;60912;48.968;10.124;2022-07-29T02:11:30;96492.63;;;19.86
71640;BMP280;60912;48.968;10.124;2022-07-29T02:13:57;96492.09;;;20.01
71640;BMP280;60912;48.968;10.124;2022-07-29T02:16:24;96484.41;;;20.13
71640;BMP280;60912;48.968;10.124;2022-07-29T02:18:54;96498.97;;;20.11
71640;BMP280;60912;48.968;10.124;2022-07-29T02:21:24;96498.03;;;20.07
71640;BMP280;60912;48.968;10.124;2022-07-29T02:23:51;96491.72;;;20.06
71640;BMP280;60912;48.968;10.124;2022-07-29T02:26:20;96499.50;;;20.08
71640;BMP280;60912;48.968;10.124;2022-07-29T02:28:49;96493.63;;;20.15
71640;BMP280;60912;48.968;10.124;2022-07-29T02:31:16;96499.66;;;20.23
71640;BMP280;60912;48.968;10.124;2022-07-29T02:33:45;96491.00;;;20.31
71640;BMP280;60912;48.968;10.124;2022-07-29T02:36:12;96491.94;;;20.36
71640;BMP280;60912;48.968;10.124;2022-07-29T02:38:38;96498.19;;;20.22
71640;BMP280;60912;48.968;10.124;2022-07-29T02:41:30;96497.25;;;20.18
71640;BMP280;60912;48.968;10.124;2022-07-29T02:44:10;96505.41;;;20.14
71640;BMP280;60912;48.968;10.124;2022-07-29T02:46:36;96502.75;;;20.16
71640;BMP280;60912;48.968;10.124;2022-07-29T02:49:09;96495.81;;;20.17
71640;BMP280;60912;48.968;10.124;2022-07-29T02:51:43;96496.66;;;20.19
71640;BMP280;60912;48.968;10.124;2022-07-29T02:54:10;96501.94;;;20.02
71640;BMP280;60912;48.968;10.124;2022-07-29T02:56:37;96496.34;;;20.02
71640;BMP280;60912;48.968;10.124;2022-07-29T02:59:08;96496.69;;;19.83
71640;BMP280;60912;48.968;10.124;2022-07-29T03:01:39;96497.19;;;19.67
71640;BMP280;60912;48.968;10.124;2022-07-29T03:04:05;96490.88;;;19.67
71640;BMP280;60912;48.968;10.124;2022-07-29T03:06:32;96487.19;;;19.76
71640;BMP280;60912;48.968;10.124;2022-07-29T03:08:59;96487.88;;;19.88
71640;BMP280;60912;48.968;10.124;2022-07-29T03:11:27;96490.50;;;19.98
71640;BMP280;60912;48.968;10.124;2022-07-29T03:13:53;96489.41;;;20.03
71640;BMP280;60912;48.968;10.124;2022-07-29T03:16:20;96500.97;;;20.09
71640;BMP280;60912;48.968;10.124;2022-07-29T03:18:47;96487.13;;;19.99
71640;BMP280;60912;48.968;10.124;2022-07-29T03:21:13;96494.97;;;19.78
71640;BMP280;60912;48.968;10.124;2022-07-29T03:23:43;96485.28;;;19.67
71640;BMP280;60912;48.968;10.124;2022-07-29T03:26:09;96486.03;;;19.44
71640;BMP280;60912;48.968;10.124;2022-07-29T03:28:34;96482.31;;;19.28
71640;BMP280;60912;48.968;10.124;2022-07-29T03:31:00;96492.28;;;19.19
71640;BMP280;60912;48.968;10.124;2022-07-29T03:33:25;96485.97;;;19.19
71640;BMP280;60912;48.968;10.124;2022-07-29T03:35:51;96497.47;;;19.13
71640;BMP280;60912;48.968;10.124;2022-07-29T03:38:16;96491.88;;;19.13
71640;BMP280;60912;48.968;10.124;2022-07-29T03:43:15;96500.16;;;19.11
71640;BMP280;60912;48.968;10.124;2022-07-29T03:45:44;96496.50;;;19.09
71640;BMP280;60912;48.968;10.124;2022-07-29T03:48:15;96496.50;;;19.09
71640;BMP280;60912;48.968;10.124;2022-07-29T03:50:41;96493.47;;;19.05
71640;BMP280;60912;48.968;10.124;2022-07-29T03:53:07;96495.09;;;19.08
71640;BMP280;60912;48.968;10.124;2022-07-29T03:55:37;96489.44;;;18.96
71640;BMP280;60912;48.968;10.124;2022-07-29T03:58:05;96489.13;;;18.90
71640;BMP280;60912;48.968;10.124;2022-07-29T04:00:34;96480.25;;;18.94
71640;BMP280;60912;48.968;10.124;2022-07-29T04:03:00;96490.69;;;19.05
71640;BMP280;60912;48.968;10.124;2022-07-29T04:05:26;96490.19;;;19.08
71640;BMP280;60912;48.968;10.124;2022-07-29T04:07:52;96495.09;;;19.08
71640;BMP280;60912;48.968;10.124;2022-07-29T04:10:17;96498.94;;;19.03
71640;BMP280;60912;48.968;10.124;2022-07-29T04:15:11;96491.53;;;19.19
71640;BMP280;60912;48.968;10.124;2022-07-29T04:17:37;96502.22;;;19.34
71640;BMP280;60912;48.968;10.124;2022-07-29T04:20:03;96500.84;;;19.70
71640;BMP280;60912;48.968;10.124;2022-07-29T04:22:29;96495.03;;;20.28
71640;BMP280;60912;48.968;10.124;2022-07-29T04:24:55;96500.19;;;21.52
71640;BMP280;60912;48.968;10.124;2022-07-29T04:27:20;96491.69;;;23.32
71640;BMP280;60912;48.968;10.124;2022-07-29T04:29:45;96495.94;;;24.74
71640;BMP280;60912;48.968;10.124;2022-07-29T04:32:11;96498.94;;;26.28
71640;BMP280;60912;48.968;10.124;2022-07-29T04:34:36;96511.09;;;27.61
71640;BMP280;60912;48.968;10.124;2022-07-29T04:37:01;96507.81;;;29.05
71640;BMP280;60912;48.968;10.124;2022-07-29T04:39:27;96504.16;;;30.34
71640;BMP280;60912;48.968;10.124;2022-07-29T04:41:53;96506.78;;;31.48
71640;BMP280;60912;48.968;10.124;2022-07-29T04:44:18;96502.91;;;32.09
71640;BMP280;60912;48.968;10.124;2022-07-29T04:46:43;96502.47;;;32.93
71640;BMP280;60912;48.968;10.124;2022-07-29T04:49:09;96506.78;;;33.09
71640;BMP280;60912;48.968;10.124;2022-07-29T04:51:35;96505.63;;;31.87
71640;BMP280;60912;48.968;10.124;2022-07-29T04:54:00;96507.44;;;30.70
71640;BMP280;60912;48.968;10.124;2022-07-29T04:56:26;96517.22;;;28.76
71640;BMP280;60912;48.968;10.124;2022-07-29T04:58:52;96516.13;;;27.64
71640;BMP280;60912;48.968;10.124;2022-07-29T05:01:17;96516.31;;;26.42
71640;BMP280;60912;48.968;10.124;2022-07-29T05:03:43;96515.50;;;26.37
71640;BMP280;60912;48.968;10.124;2022-07-29T05:06:10;96523.16;;;27.93
71640;BMP280;60912;48.968;10.124;2022-07-29T05:08:35;96517.41;;;29.68
71640;BMP280;60912;48.968;10.124;2022-07-29T05:11:01;96517.50;;;31.52
71640;BMP280;60912;48.968;10.124;2022-07-29T05:13:26;96509.91;;;31.88
71640;BMP280;60912;48.968;10.124;2022-07-29T05:15:52;96507.50;;;33.09
71640;BMP280;60912;48.968;10.124;2022-07-29T05:18:18;96507.44;;;32.73
71640;BMP280;60912;48.968;10.124;2022-07-29T05:20:43;96523.38;;;31.82
71640;BMP280;60912;48.968;10.124;2022-07-29T05:23:09;96531.41;;;30.51
71640;BMP280;60912;48.968;10.124;2022-07-29T05:25:38;96537.69;;;29.08
71640;BMP280;60912;48.968;10.124;2022-07-29T05:28:03;96526.19;;;28.33
71640;BMP280;60912;48.968;10.124;2022-07-29T05:30:29;96520.69;;;28.07
71640;BMP280;60912;48.968;10.124;2022-07-29T05:32:54;96533.72;;;27.88
71640;BMP280;60912;48.968;10.124;2022-07-29T05:35:19;96530.41;;;27.98
71640;BMP280;60912;48.968;10.124;2022-07-29T05:37:45;96532.78;;;27.52
71640;BMP280;60912;48.968;10.124;2022-07-29T05:40:11;96528.47;;;27.21
71640;BMP280;60912;48.968;10.124;2022-07-29T05:42:37;96529.84;;;26.00
71640;BMP280;60912;48.968;10.124;2022-07-29T05:45:03;96540.16;;;25.28
71640;BMP280;60912;48.968;10.124;2022-07-29T05:47:28;96538.94;;;25.75
71640;BMP280;60912;48.968;10.124;2022-07-29T05:49:54;96531.56;;;26.33
71640;BMP280;60912;48.968;10.124;2022-07-29T05:52:20;96541.88;;;26.69
71640;BMP280;60912;48.968;10.124;2022-07-29T05:54:46;96540.97;;;26.87
71640;BMP280;60912;48.968;10.124;2022-07-29T05:57:16;96544.28;;;27.05
71640;BMP280;60912;48.968;10.124;2022-07-29T05:59:42;96534.00;;;26.92
71640;BMP280;60912;48.968;10.124;2022-07-29T06:02:07;96540.94;;;26.61
71640;BMP280;60912;48.968;10.124;2022-07-29T06:04:33;96543.19;;;26.43
71640;BMP280;60912;48.968;10.124;2022-07-29T06:06:58;96543.56;;;26.10
71640;BMP280;60912;48.968;10.124;2022-07-29T06:09:24;96533.72;;;26.11
71640;BMP280;60912;48.968;10.124;2022-07-29T06:11:49;96543.88;;;26.20
71640;BMP280;60912;48.968;10.124;2022-07-29T06:14:14;96547.28;;;26.61
71640;BMP280;60912;48.968;10.124;2022-07-29T06:16:40;96548.34;;;26.48
71640;BMP280;60912;48.968;10.124;2022-07-29T06:19:06;96546.38;;;26.31
71640;BMP280;60912;48.968;10.124;2022-07-29T06:21:31;96549.41;;;26.37
71640;BMP280;60912;48.968;10.124;2022-07-29T06:23:57;96546.75;;;26.43
71640;BMP280;60912;48.968;10.124;2022-07-29T06:26:22;96550.47;;;26.74
71640;BMP280;60912;48.968;10.124;2022-07-29T06:28:48;96547.91;;;26.58
71640;BMP280;60912;48.968;10.124;2022-07-29T06:31:14;96549.31;;;26.12
71640;BMP280;60912;48.968;10.124;2022-07-29T06:33:39;96545.50;;;25.60
71640;BMP280;60912;48.968;10.124;2022-07-29T06:36:05;96548.38;;;25.03
71640;BMP280;60912;48.968;10.124;2022-07-29T06:38:30;96561.50;;;24.94
71640;BMP280;60912;48.968;10.124;2022-07-29T06:40:56;96555.22;;;25.15
71640;BMP280;60912;48.968;10.124;2022-07-29T06:43:25;96559.16;;;25.48
71640;BMP280;60912;48.968;10.124;2022-07-29T06:45:51;96553.28;;;25.61
71640;BMP280;60912;48.968;10.124;2022-07-29T06:48:17;96559.88;;;25.89
71640;BMP280;60912;48.968;10.124;2022-07-29T06:50:42;96554.75;;;26.75
71640;BMP280;60912;48.968;10.124;2022-07-29T06:53:07;96555.53;;;26.77
71640;BMP280;60912;48.968;10.124;2022-07-29T06:55:33;96559.19;;;26.34
71640;BMP280;60912;48.968;10.124;2022-07-29T06:57:58;96560.25;;;25.80
71640;BMP280;60912;48.968;10.124;2022-07-29T07:00:24;96558.41;;;26.55
71640;BMP280;60912;48.968;10.124;2022-07-29T07:02:50;96558.00;;;26.41
71640;BMP280;60912;48.968;10.124;2022-07-29T07:05:15;96563.28;;;26.77
71640;BMP280;60912;48.968;10.124;2022-07-29T07:07:41;96570.66;;;26.88
71640;BMP280;60912;48.968;10.124;2022-07-29T07:10:06;96563.03;;;26.68
71640;BMP280;60912;48.968;10.124;2022-07-29T07:12:32;96562.59;;;26.78
71640;BMP280;60912;48.968;10.124;2022-07-29T07:14:57;96562.44;;;26.96
71640;BMP280;60912;48.968;10.124;2022-07-29T07:17:23;96558.19;;;26.97
71640;BMP280;60912;48.968;10.124;2022-07-29T07:19:49;96562.13;;;26.86
71640;BMP280;60912;48.968;10.124;2022-07-29T07:22:14;96564.13;;;27.07
71640;BMP280;60912;48.968;10.124;2022-07-29T07:24:40;96562.53;;;27.53
71640;BMP280;60912;48.968;10.124;2022-07-29T07:27:05;96552.53;;;28.37
71640;BMP280;60912;48.968;10.124;2022-07-29T07:29:30;96552.78;;;28.18
71640;BMP280;60912;48.968;10.124;2022-07-29T07:31:57;96567.41;;;28.06
71640;BMP280;60912;48.968;10.124;2022-07-29T07:34:22;96557.78;;;28.51
71640;BMP280;60912;48.968;10.124;2022-07-29T07:36:48;96566.06;;;28.41
71640;BMP280;60912;48.968;10.124;2022-07-29T07:39:13;96561.50;;;28.93
71640;BMP280;60912;48.968;10.124;2022-07-29T07:41:39;96563.63;;;29.30
71640;BMP280;60912;48.968;10.124;2022-07-29T07:44:04;96558.16;;;29.41
71640;BMP280;60912;48.968;10.124;2022-07-29T07:46:30;96554.63;;;29.86
71640;BMP280;60912;48.968;10.124;2022-07-29T07:48:55;96549.00;;;30.38
71640;BMP280;60912;48.968;10.124;2022-07-29T07:51:20;96549.88;;;29.98
71640;BMP280;60912;48.968;10.124;2022-07-29T07:53:46;96549.72;;;30.38
71640;BMP280;60912;48.968;10.124;2022-07-29T07:56:15;96542.16;;;30.59
71640;BMP280;60912;48.968;10.124;2022-07-29T07:58:40;96547.53;;;30.91
71640;BMP280;60912;48.968;10.124;2022-07-29T08:01:06;96544.59;;;30.87
71640;BMP280;60912;48.968;10.124;2022-07-29T08:03:32;96538.50;;;30.50
71640;BMP280;60912;48.968;10.124;2022-07-29T08:05:58;96545.59;;;30.47
71640;BMP280;60912;48.968;10.124;2022-07-29T08:08:23;96540.94;;;30.20
71640;BMP280;60912;48.968;10.124;2022-07-29T08:10:48;96546.81;;;30.34
71640;BMP280;60912;48.968;10.124;2022-07-29T08:13:17;96542.38;;;30.75
71640;BMP280;60912;48.968;10.124;2022-07-29T08:15:42;96547.69;;;31.07
71640;BMP280;60912;48.968;10.124;2022-07-29T08:18:10;96545.16;;;30.73
71640;BMP280;60912;48.968;10.124;2022-07-29T08:20:36;96555.53;;;30.48
71640;BMP280;60912;48.968;10.124;2022-07-29T08:23:04;96548.59;;;30.10
71640;BMP280;60912;48.968;10.124;2022-07-29T08:25:31;96553.19;;;29.03
71640;BMP280;60912;48.968;10.124;2022-07-29T08:27:57;96548.88;;;28.64
71640;BMP280;60912;48.968;10.124;2022-07-29T08:30:22;96549.25;;;28.83
71640;BMP280;60912;48.968;10.124;2022-07-29T08:32:48;96549.13;;;29.54
71640;BMP280;60912;48.968;10.124;2022-07-29T08:35:15;96545.88;;;30.20
71640;BMP280;60912;48.968;10.124;2022-07-29T08:37:40;96552.38;;;30.24
71640;BMP280;60912;48.968;10.124;2022-07-29T08:40:07;96553.66;;;30.17
71640;BMP280;60912;48.968;10.124;2022-07-29T08:42:32;96555.44;;;30.42
71640;BMP280;60912;48.968;10.124;2022-07-29T08:44:58;96553.03;;;30.77
71640;BMP280;60912;48.968;10.124;2022-07-29T08:47:23;96551.72;;;30.84
71640;BMP280;60912;48.968;10.124;2022-07-29T08:49:51;96549.47;;;30.76
71640;BMP280;60912;48.968;10.124;2022-07-29T08:52:17;96545.06;;;30.67
71640;BMP280;60912;48.968;10.124;2022-07-29T08:54:43;96547.38;;;30.79
71640;BMP280;60912;48.968;10.124;2022-07-29T08:57:12;96550.31;;;30.87
71640;BMP280;60912;48.968;10.124;2022-07-29T08:59:40;96553.50;;;30.57
71640;BMP280;60912;48.968;10.124;2022-07-29T09:02:22;96550.03;;;30.64
71640;BMP280;60912;48.968;10.124;2022-07-29T09:04:48;96548.72;;;30.18
71640;BMP280;60912;48.968;10.124;2022-07-29T09:07:18;96538.81;;;30.74
71640;BMP280;60912;48.968;10.124;2022-07-29T09:09:44;96543.00;;;30.69
71640;BMP280;60912;48.968;10.124;2022-07-29T09:12:10;96546.78;;;30.32
71640;BMP280;60912;48.968;10.124;2022-07-29T09:14:40;96552.88;;;29.25
71640;BMP280;60912;48.968;10.124;2022-07-29T09:17:06;96549.00;;;29.06
71640;BMP280;60912;48.968;10.124;2022-07-29T09:19:34;96552.22;;;29.28
71640;BMP280;60912;48.968;10.124;2022-07-29T09:22:01;96551.81;;;30.36
71640;BMP280;60912;48.968;10.124;2022-07-29T09:24:43;96539.19;;;31.11
71640;BMP280;60912;48.968;10.124;2022-07-29T09:27:22;96544.19;;;30.50
71640;BMP280;60912;48.968;10.124;2022-07-29T09:30:08;96540.72;;;30.06
71640;BMP280;60912;48.968;10.124;2022-07-29T09:32:56;96544.09;;;30.44
71640;BMP280;60912;48.968;10.124;2022-07-29T09:35:24;96545.91;;;30.75
71640;BMP280;60912;48.968;10.124;2022-07-29T09:37:50;96545.41;;;30.95
71640;BMP280;60912;48.968;10.124;2022-07-29T09:40:27;96541.72;;;30.83
71640;BMP280;60912;48.968;10.124;2022-07-29T09:42:54;96551.09;;;30.35
71640;BMP280;60912;48.968;10.124;2022-07-29T09:45:33;96537.41;;;30.78
71640;BMP280;60912;48.968;10.124;2022-07-29T09:47:59;96538.41;;;31.02
71640;BMP280;60912;48.968;10.124;2022-07-29T09:50:39;96538.66;;;30.62
71640;BMP280;60912;48.968;10.124;2022-07-29T09:53:05;96536.78;;;30.85
71640;BMP280;60912;48.968;10.124;2022-07-29T09:55:30;96542.75;;;30.49
71640;BMP280;60912;48.968;10.124;2022-07-29T09:58:15;96533.19;;;30.83
71640;BMP280;60912;48.968;10.124;2022-07-29T10:00:42;96530.59;;;31.09
71640;BMP280;60912;48.968;10.124;2022-07-29T10:03:07;96536.81;;;31.63
71640;BMP280;60912;48.968;10.124;2022-07-29T10:05:33;96538.53;;;32.04
71640;BMP280;60912;48.968;10.124;2022-07-29T10:07:58;96532.22;;;32.24
71640;BMP280;60912;48.968;10.124;2022-07-29T10:12:59;96532.81;;;32.04
71640;BMP280;60912;48.968;10.124;2022-07-29T10:15:28;96539.56;;;31.51
71640;BMP280;60912;48.968;10.124;2022-07-29T10:17:57;96542.34;;;31.41
71640;BMP280;60912;48.968;10.124;2022-07-29T10:20:24;96546.78;;;30.32
71640;BMP280;60912;48.968;10.124;2022-07-29T10:22:50;96547.28;;;29.71
71640;BMP280;60912;48.968;10.124;2022-07-29T10:25:16;96546.09;;;29.84
71640;BMP280;60912;48.968;10.124;2022-07-29T10:27:43;96550.66;;;30.05
71640;BMP280;60912;48.968;10.124;2022-07-29T10:30:10;96537.91;;;30.60
71640;BMP280;60912;48.968;10.124;2022-07-29T10:43:37;96517.06;;;31.95
71640;BMP280;60912;48.968;10.124;2022-07-29T10:46:05;96518.66;;;32.20
71640;BMP280;60912;48.968;10.124;2022-07-29T10:48:31;96522.44;;;32.93
71640;BMP280;60912;48.968;10.124;2022-07-29T10:53:51;96502.44;;;32.77
71640;BMP280;60912;48.968;10.124;2022-07-29T10:56:28;96508.75;;;32.44
71640;BMP280;60912;48.968;10.124;2022-07-29T10:59:30;96493.81;;;32.49
71640;BMP280;60912;48.968;10.124;2022-07-29T11:01:56;96486.75;;;32.78
71640;BMP280;60912;48.968;10.124;2022-07-29T11:07:10;96486.09;;;33.00
71640;BMP280;60912;48.968;10.124;2022-07-29T11:09:36;96480.19;;;32.34
71640;BMP280;60912;48.968;10.124;2022-07-29T11:12:02;96484.06;;;31.60
71640;BMP280;60912;48.968;10.124;2022-07-29T11:17:15;96482.00;;;31.71
71640;BMP280;60912;48.968;10.124;2022-07-29T11:19:40;96483.13;;;32.52
71640;BMP280;60912;48.968;10.124;2022-07-29T11:22:08;96485.25;;;32.45
71640;BMP280;60912;48.968;10.124;2022-07-29T11:24:34;96483.03;;;32.26
71640;BMP280;60912;48.968;10.124;2022-07-29T11:27:16;96475.97;;;32.49
71640;BMP280;60912;48.968;10.124;2022-07-29T11:30:03;96474.63;;;32.94
71640;BMP280;60912;48.968;10.124;2022-07-29T11:32:41;96483.22;;;33.22
71640;BMP280;60912;48.968;10.124;2022-07-29T11:35:10;96486.06;;;33.18
71640;BMP280;60912;48.968;10.124;2022-07-29T11:37:36;96488.94;;;32.92
71640;BMP280;60912;48.968;10.124;2022-07-29T11:47:28;96482.50;;;33.32
71640;BMP280;60912;48.968;10.124;2022-07-29T11:49:56;96490.34;;;32.89
71640;BMP280;60912;48.968;10.124;2022-07-29T11:52:41;96487.31;;;32.27
71640;BMP280;60912;48.968;10.124;2022-07-29T11:55:14;96484.34;;;32.04
71640;BMP280;60912;48.968;10.124;2022-07-29T11:57:55;96481.19;;;31.58
71640;BMP280;60912;48.968;10.124;2022-07-29T12:00:33;96476.91;;;31.55
71640;BMP280;60912;48.968;10.124;2022-07-29T12:03:01;96484.88;;;31.71
71640;BMP280;60912;48.968;10.124;2022-07-29T12:08:04;96489.34;;;31.08
71640;BMP280;60912;48.968;10.124;2022-07-29T12:10:30;96479.28;;;30.97
71640;BMP280;60912;48.968;10.124;2022-07-29T12:12:55;96476.72;;;30.59
71640;BMP280;60912;48.968;10.124;2022-07-29T12:15:21;96481.16;;;30.14
71640;BMP280;60912;48.968;10.124;2022-07-29T12:17:49;96491.47;;;29.89
71640;BMP280;60912;48.968;10.124;2022-07-29T12:20:23;96498.31;;;29.72
71640;BMP280;60912;48.968;10.124;2022-07-29T12:22:48;96494.25;;;29.85
71640;BMP280;60912;48.968;10.124;2022-07-29T12:25:14;96495.28;;;29.60
71640;BMP280;60912;48.968;10.124;2022-07-29T12:27:42;96495.66;;;29.39
71640;BMP280;60912;48.968;10.124;2022-07-29T12:30:15;96491.69;;;29.58
71640;BMP280;60912;48.968;10.124;2022-07-29T12:32:45;96494.50;;;29.56
71640;BMP280;60912;48.968;10.124;2022-07-29T12:35:16;96498.94;;;29.65
71640;BMP280;60912;48.968;10.124;2022-07-29T12:37:45;96494.44;;;29.54
71640;BMP280;60912;48.968;10.124;2022-07-29T12:40:14;96496.59;;;29.11
71640;BMP280;60912;48.968;10.124;2022-07-29T12:43:04;96499.44;;;28.74
71640;BMP280;60912;48.968;10.124;2022-07-29T12:45:30;96498.97;;;28.51
71640;BMP280;60912;48.968;10.124;2022-07-29T12:47:56;96499.09;;;28.24
71640;BMP280;60912;48.968;10.124;2022-07-29T12:50:22;96494.72;;;28.19
71640;BMP280;60912;48.968;10.124;2022-07-29T12:52:47;96500.13;;;28.38
71640;BMP280;60912;48.968;10.124;2022-07-29T12:55:13;96504.94;;;28.32
71640;BMP280;60912;48.968;10.124;2022-07-29T12:57:50;96496.59;;;28.40
71640;BMP280;60912;48.968;10.124;2022-07-29T13:00:23;96497.13;;;28.66
71640;BMP280;60912;48.968;10.124;2022-07-29T13:02:57;96493.63;;;28.67
71640;BMP280;60912;48.968;10.124;2022-07-29T13:05:22;96489.06;;;28.88
71640;BMP280;60912;48.968;10.124;2022-07-29T13:07:50;96492.28;;;29.08
71640;BMP280;60912;48.968;10.124;2022-07-29T13:10:20;96500.91;;;29.16
71640;BMP280;60912;48.968;10.124;2022-07-29T13:13:06;96514.47;;;29.20
71640;BMP280;60912;48.968;10.124;2022-07-29T13:15:34;96515.06;;;29.12
71640;BMP280;60912;48.968;10.124;2022-07-29T13:17:59;96506.97;;;28.97
71640;BMP280;60912;48.968;10.124;2022-07-29T13:20:27;96511.25;;;28.62
71640;BMP280;60912;48.968;10.124;2022-07-29T13:22:56;96501.97;;;28.59
71640;BMP280;60912;48.968;10.124;2022-07-29T13:25:28;96507.31;;;28.79
71640;BMP280;60912;48.968;10.124;2022-07-29T13:27:54;96498.97;;;28.87
71640;BMP280;60912;48.968;10.124;2022-07-29T13:30:21;96509.03;;;28.94
71640;BMP280;60912;48.968;10.124;2022-07-29T13:32:47;96504.75;;;28.93
71640;BMP280;60912;48.968;10.124;2022-07-29T13:35:13;96513.94;;;29.29
71640;BMP280;60912;48.968;10.124;2022-07-29T13:37:39;96506.63;;;29.60
71640;BMP280;60912;48.968;10.124;2022-07-29T13:40:09;96496.09;;;29.65
71640;BMP280;60912;48.968;10.124;2022-07-29T13:42:35;96501.28;;;29.82
71640;BMP280;60912;48.968;10.124;2022-07-29T13:45:01;96498.88;;;30.11
71640;BMP280;60912;48.968;10.124;2022-07-29T13:47:28;96492.56;;;30.18
71640;BMP280;60912;48.968;10.124;2022-07-29T13:49:54;96489.50;;;30.00
71640;BMP280;60912;48.968;10.124;2022-07-29T13:52:20;96495.91;;;29.57
71640;BMP280;60912;48.968;10.124;2022-07-29T13:54:45;96484.19;;;29.76
71640;BMP280;60912;48.968;10.124;2022-07-29T13:57:11;96487.38;;;30.00
71640;BMP280;60912;48.968;10.124;2022-07-29T13:59:38;96487.72;;;29.77
71640;BMP280;60912;48.968;10.124;2022-07-29T14:02:04;96488.84;;;29.14
71640;BMP280;60912;48.968;10.124;2022-07-29T14:04:30;96485.78;;;28.66
71640;BMP280;60912;48.968;10.124;2022-07-29T14:06:56;96483.78;;;28.37
71640;BMP280;60912;48.968;10.124;2022-07-29T14:09:21;96480.97;;;28.73
71640;BMP280;60912;48.968;10.124;2022-07-29T14:11:47;96484.88;;;28.93
71640;BMP280;60912;48.968;10.124;2022-07-29T14:14:14;96481.25;;;28.51
71640;BMP280;60912;48.968;10.124;2022-07-29T14:16:40;96488.19;;;28.44
71640;BMP280;60912;48.968;10.124;2022-07-29T14:19:05;96494.13;;;28.58
71640;BMP280;60912;48.968;10.124;2022-07-29T14:21:32;96493.38;;;28.55
71640;BMP280;60912;48.968;10.124;2022-07-29T14:23:57;96490.56;;;28.24
71640;BMP280;60912;48.968;10.124;2022-07-29T14:26:22;96493.44;;;27.94
71640;BMP280;60912;48.968;10.124;2022-07-29T14:28:48;96501.44;;;28.02
71640;BMP280;60912;48.968;10.124;2022-07-29T14:31:15;96492.44;;;27.81
71640;BMP280;60912;48.968;10.124;2022-07-29T14:33:40;96502.56;;;27.88
71640;BMP280;60912;48.968;10.124;2022-07-29T14:36:06;96485.22;;;27.74
71640;BMP280;60912;48.968;10.124;2022-07-29T14:38:31;96505.41;;;27.90
71640;BMP280;60912;48.968;10.124;2022-07-29T14:40:56;96506.00;;;28.17
71640;BMP280;60912;48.968;10.124;2022-07-29T14:43:22;96515.94;;;27.86